createdAt,value
2019-05-18T00:00:27.523Z,99041.11
2019-05-18T00:01:03.632Z,99039.17
2019-05-18T00:01:40.309Z,99037.59
2019-05-18T00:02:16.287Z,99035.59
2019-05-18T00:02:52.692Z,99034.95
2019-05-18T00:03:28.968Z,99031.52
2019-05-18T00:04:06.045Z,99033.13
2019-05-18T00:04:43.120Z,99032.02
2019-05-18T00:05:18.761Z,99036.84
2019-05-18T00:05:54.571Z,99038.36
2019-05-18T00:06:31.147Z,99037.17
2019-05-18T00:07:06.796Z,99035.88
2019-05-18T00:07:43.962Z,99034.85
2019-05-18T00:08:20.407Z,99035.96
2019-05-18T00:08:56.640Z,99031.17
2019-05-18T00:09:33.415Z,99033.87
2019-05-18T00:10:09.875Z,99039.80
2019-05-18T00:10:46.124Z,99029.91
2019-05-18T00:11:22.844Z,99035.20
2019-05-18T00:11:59.774Z,99033.01
2019-05-18T00:12:37.603Z,99035.81
2019-05-18T00:13:14.045Z,99033.84
2019-05-18T00:13:50.370Z,99031.71
2019-05-18T00:14:26.014Z,99031.06
2019-05-18T00:15:02.465Z,99027.02
2019-05-18T00:15:38.591Z,99029.61
2019-05-18T00:16:14.282Z,99034.05
2019-05-18T00:16:50.693Z,99034.42
2019-05-18T00:17:26.695Z,99032.45
2019-05-18T00:18:04.343Z,99034.86
2019-05-18T00:18:40.651Z,99034.77
2019-05-18T00:19:17.319Z,99036.68
2019-05-18T00:19:52.973Z,99034.92
2019-05-18T00:20:28.874Z,99034.30
2019-05-18T00:21:05.553Z,99038.84
2019-05-18T00:21:41.576Z,99035.48
2019-05-18T00:22:18.460Z,99033.19
2019-05-18T00:22:54.872Z,99033.37
2019-05-18T00:23:30.505Z,99036.09
2019-05-18T00:24:06.790Z,99031.95
2019-05-18T00:24:43.754Z,99035.19
2019-05-18T00:25:19.402Z,99031.30
2019-05-18T00:25:55.994Z,99031.98
2019-05-18T00:26:32.608Z,99033.34
2019-05-18T00:27:08.462Z,99032.53
2019-05-18T00:27:44.732Z,99036.39
2019-05-18T00:28:21.369Z,99030.03
2019-05-18T00:28:57.632Z,99031.78
2019-05-18T00:29:35.489Z,99038.27
2019-05-18T00:30:12.069Z,99031.88
2019-05-18T00:30:47.732Z,99036.42
2019-05-18T00:31:24.154Z,99029.19
2019-05-18T00:32:00.185Z,99030.95
2019-05-18T00:32:38.664Z,99032.99
2019-05-18T00:33:14.563Z,99030.03
2019-05-18T00:33:50.697Z,99030.33
2019-05-18T00:34:27.265Z,99029.02
2019-05-18T00:35:03.425Z,99031.42
2019-05-18T00:35:39.985Z,99031.14
2019-05-18T00:36:16.098Z,99030.30
2019-05-18T00:36:52.937Z,99030.48
2019-05-18T00:37:28.925Z,99020.02
2019-05-18T00:38:04.881Z,99028.27
2019-05-18T00:38:41.171Z,99031.32
2019-05-18T00:39:17.218Z,99023.91
2019-05-18T00:39:52.815Z,99031.78
2019-05-18T00:40:28.697Z,99027.98
2019-05-18T00:41:04.727Z,99025.89
2019-05-18T00:41:41.223Z,99023.38
2019-05-18T00:42:17.339Z,99035.87
2019-05-18T00:42:53.323Z,99027.19
2019-05-18T00:43:29.879Z,99024.40
2019-05-18T00:44:06.317Z,99028.29
2019-05-18T00:44:42.360Z,99029.91
2019-05-18T00:45:18.338Z,99023.64
2019-05-18T00:45:54.537Z,99025.25
2019-05-18T00:46:30.981Z,99030.00
2019-05-18T00:47:07.031Z,99024.28
2019-05-18T00:47:42.935Z,99022.34
2019-05-18T00:48:19.253Z,99016.78
2019-05-18T00:48:55.181Z,99024.28
2019-05-18T00:49:31.624Z,99022.34
2019-05-18T00:50:09.607Z,99022.92
2019-05-18T00:50:45.606Z,99023.84
2019-05-18T00:51:23.302Z,99020.69
2019-05-18T00:51:59.215Z,99023.13
2019-05-18T00:52:38.904Z,99029.78
2019-05-18T00:53:13.472Z,99033.80
2019-05-18T00:53:50.030Z,99025.52
2019-05-18T00:54:25.845Z,99027.92
2019-05-18T00:55:02.342Z,99023.13
2019-05-18T00:55:38.662Z,99024.24
2019-05-18T00:56:15.120Z,99024.33
2019-05-18T00:56:51.602Z,99026.64
2019-05-18T00:57:27.706Z,99034.72
2019-05-18T00:58:04.306Z,99030.00
2019-05-18T00:58:41.426Z,99025.25
2019-05-18T00:59:18.035Z,99024.16
2019-05-18T00:59:54.334Z,99026.13
2019-05-18T01:00:30.883Z,99024.83
2019-05-18T01:01:07.554Z,99028.88
2019-05-18T01:01:43.278Z,99027.67
2019-05-18T01:02:20.022Z,99034.62
2019-05-18T01:02:56.610Z,99034.35
2019-05-18T01:03:32.561Z,99031.83
2019-05-18T01:04:08.401Z,99034.88
2019-05-18T01:04:44.438Z,99034.35
2019-05-18T01:05:20.054Z,99030.38
2019-05-18T01:05:56.487Z,99021.30
2019-05-18T01:06:32.484Z,99024.72
2019-05-18T01:07:09.424Z,99036.09
2019-05-18T01:07:45.361Z,99032.04
2019-05-18T01:08:21.460Z,99029.33
2019-05-18T01:08:57.523Z,99029.53
2019-05-18T01:09:33.349Z,99030.46
2019-05-18T01:10:10.841Z,99030.64
2019-05-18T01:10:46.958Z,99029.72
2019-05-18T01:11:23.417Z,99031.76
2019-05-18T01:12:00.055Z,99036.48
2019-05-18T01:12:36.163Z,99034.05
2019-05-18T01:13:12.065Z,99037.56
2019-05-18T01:13:48.440Z,99030.63
2019-05-18T01:14:24.053Z,99029.08
2019-05-18T01:15:00.209Z,99031.34
2019-05-18T01:15:37.213Z,99027.17
2019-05-18T01:16:13.122Z,99032.29
2019-05-18T01:16:49.078Z,99030.16
2019-05-18T01:17:25.081Z,99028.97
2019-05-18T01:18:02.388Z,99025.81
2019-05-18T01:18:39.100Z,99031.09
2019-05-18T01:19:15.806Z,99026.64
2019-05-18T01:19:51.599Z,99035.34
2019-05-18T01:20:27.416Z,99028.11
2019-05-18T01:21:03.835Z,99024.31
2019-05-18T01:21:39.514Z,99027.17
2019-05-18T01:22:16.370Z,99030.63
2019-05-18T01:22:52.419Z,99029.33
2019-05-18T01:23:29.159Z,99032.18
2019-05-18T01:24:05.117Z,99031.41
2019-05-18T01:24:41.604Z,99032.55
2019-05-18T01:25:17.940Z,99032.18
2019-05-18T01:25:54.392Z,99033.41
2019-05-18T01:26:30.883Z,99025.53
2019-05-18T01:27:07.526Z,99030.27
2019-05-18T01:27:43.852Z,99023.96
2019-05-18T01:28:19.943Z,99029.05
2019-05-18T01:29:00.869Z,99030.91
2019-05-18T01:29:37.129Z,99034.05
2019-05-18T01:30:16.672Z,99031.20
2019-05-18T01:30:53.646Z,99031.30
2019-05-18T01:31:30.468Z,99031.94
2019-05-18T01:32:06.528Z,99035.73
2019-05-18T01:32:42.269Z,99026.50
2019-05-18T01:33:18.104Z,99036.41
2019-05-18T01:33:54.213Z,99029.73
2019-05-18T01:34:30.426Z,99031.20
2019-05-18T01:35:07.395Z,99024.84
2019-05-18T01:35:44.080Z,99032.04
2019-05-18T01:36:19.725Z,99028.83
2019-05-18T01:36:55.590Z,99034.73
2019-05-18T01:37:31.639Z,99036.30
2019-05-18T01:38:07.543Z,99030.03
2019-05-18T01:38:43.486Z,99036.85
2019-05-18T01:39:19.498Z,99034.00
2019-05-18T01:39:56.101Z,99037.69
2019-05-18T01:40:32.306Z,99042.32
2019-05-18T01:41:08.487Z,99042.99
2019-05-18T01:41:44.804Z,99040.58
2019-05-18T01:42:21.640Z,99037.82
2019-05-18T01:42:58.307Z,99038.98
2019-05-18T01:43:34.862Z,99041.48
2019-05-18T01:44:10.742Z,99041.67
2019-05-18T01:44:46.863Z,99044.91
2019-05-18T01:45:23.415Z,99040.19
2019-05-18T01:45:59.803Z,99041.78
2019-05-18T01:46:36.153Z,99041.04
2019-05-18T01:47:11.925Z,99038.80
2019-05-18T01:47:47.799Z,99040.11
2019-05-18T01:48:23.806Z,99039.30
2019-05-18T01:48:59.539Z,99038.08
2019-05-18T01:49:36.515Z,99042.72
2019-05-18T01:50:13.687Z,99040.59
2019-05-18T01:50:49.334Z,99040.59
2019-05-18T01:51:25.145Z,99037.08
2019-05-18T01:52:01.606Z,99037.45
2019-05-18T01:52:37.875Z,99035.03
2019-05-18T01:53:13.754Z,99033.82
2019-05-18T01:53:49.876Z,99029.10
2019-05-18T01:54:25.481Z,99031.69
2019-05-18T01:55:02.342Z,99034.48
2019-05-18T01:55:38.779Z,99036.79
2019-05-18T01:56:14.459Z,99030.31
2019-05-18T01:56:50.569Z,99030.02
2019-05-18T01:57:26.611Z,99026.63
2019-05-18T01:58:02.603Z,99026.63
2019-05-18T01:58:38.594Z,99031.68
2019-05-18T01:59:15.395Z,99031.97
2019-05-18T01:59:51.035Z,99029.84
2019-05-18T02:00:26.875Z,99031.50
2019-05-18T02:01:04.639Z,99029.75
2019-05-18T02:01:40.318Z,99030.12
2019-05-18T02:02:16.219Z,99027.24
2019-05-18T02:02:52.919Z,99031.88
2019-05-18T02:03:28.851Z,99026.41
2019-05-18T02:04:06.118Z,99030.39
2019-05-18T02:04:42.227Z,99030.39
2019-05-18T02:05:17.894Z,99024.11
2019-05-18T02:05:53.711Z,99025.86
2019-05-18T02:06:29.732Z,99020.48
2019-05-18T02:07:05.389Z,99025.78
2019-05-18T02:07:42.284Z,99025.41
2019-05-18T02:08:18.274Z,99025.48
2019-05-18T02:08:55.039Z,99032.25
2019-05-18T02:09:31.451Z,99024.84
2019-05-18T02:10:08.471Z,99032.63
2019-05-18T02:10:44.137Z,99028.16
2019-05-18T02:11:19.966Z,99028.97
2019-05-18T02:11:55.965Z,99026.58
2019-05-18T02:12:32.248Z,99026.66
2019-05-18T02:13:09.299Z,99025.20
2019-05-18T02:13:46.078Z,99023.34
2019-05-18T02:14:21.816Z,99018.98
2019-05-18T02:14:58.684Z,99018.83
2019-05-18T02:15:35.644Z,99017.14
2019-05-18T02:16:11.376Z,99018.98
2019-05-18T02:16:47.210Z,99017.91
2019-05-18T02:17:23.486Z,99016.95
2019-05-18T02:17:59.163Z,99011.77
2019-05-18T02:18:35.390Z,99013.64
2019-05-18T02:19:11.735Z,99007.88
2019-05-18T02:19:48.074Z,99012.34
2019-05-18T02:20:23.871Z,99008.34
2019-05-18T02:21:00.451Z,99017.07
2019-05-18T02:21:36.095Z,99009.94
2019-05-18T02:22:12.310Z,99006.97
2019-05-18T02:22:48.345Z,99006.22
2019-05-18T02:23:25.401Z,99012.98
2019-05-18T02:24:01.598Z,99006.34
2019-05-18T02:24:38.265Z,99008.02
2019-05-18T02:25:14.333Z,99015.30
2019-05-18T02:25:50.751Z,99007.64
2019-05-18T02:26:26.739Z,99015.67
2019-05-18T02:27:02.475Z,99010.86
2019-05-18T02:27:38.344Z,99014.20
2019-05-18T02:28:14.460Z,99012.81
2019-05-18T02:28:50.722Z,99005.77
2019-05-18T02:29:26.634Z,99013.82
2019-05-18T02:30:02.702Z,99002.70
2019-05-18T02:30:38.538Z,99002.70
2019-05-18T02:31:14.533Z,99003.63
2019-05-18T02:31:51.076Z,99000.78
2019-05-18T02:32:26.703Z,99001.05
2019-05-18T02:33:03.175Z,98997.29
2019-05-18T02:33:39.233Z,99000.72
2019-05-18T02:34:15.960Z,99000.80
2019-05-18T02:34:52.164Z,99005.06
2019-05-18T02:35:29.025Z,98998.58
2019-05-18T02:36:04.644Z,98995.62
2019-05-18T02:36:40.985Z,98998.21
2019-05-18T02:37:17.018Z,98997.75
2019-05-18T02:37:56.235Z,98998.30
2019-05-18T02:38:33.041Z,98990.52
2019-05-18T02:39:09.662Z,98995.70
2019-05-18T02:39:46.064Z,98995.25
2019-05-18T02:40:21.514Z,98989.31
2019-05-18T02:40:58.114Z,98996.45
2019-05-18T02:41:34.107Z,98990.61
2019-05-18T02:42:10.791Z,98990.98
2019-05-18T02:42:47.238Z,98995.33
2019-05-18T02:43:23.600Z,98994.11
2019-05-18T02:43:59.448Z,98996.70
2019-05-18T02:44:35.475Z,98995.99
2019-05-18T02:45:13.393Z,98995.16
2019-05-18T02:45:50.809Z,98998.58
2019-05-18T02:46:26.912Z,98995.87
2019-05-18T02:47:02.912Z,98994.58
2019-05-18T02:47:38.384Z,98993.02
2019-05-18T02:48:14.920Z,98994.40
2019-05-18T02:48:51.846Z,98991.72
2019-05-18T02:49:27.279Z,98988.66
2019-05-18T02:50:03.979Z,98992.09
2019-05-18T02:50:40.519Z,98991.06
2019-05-18T02:51:16.713Z,98988.75
2019-05-18T02:51:52.718Z,98993.10
2019-05-18T02:52:29.312Z,98984.49
2019-05-18T02:53:04.764Z,98988.09
2019-05-18T02:53:41.494Z,98987.05
2019-05-18T02:54:17.499Z,98988.44
2019-05-18T02:54:52.949Z,98981.14
2019-05-18T02:55:29.436Z,98984.03
2019-05-18T02:56:06.084Z,98982.82
2019-05-18T02:56:41.678Z,98983.50
2019-05-18T02:57:17.689Z,98973.59
2019-05-18T02:57:54.450Z,98978.67
2019-05-18T02:58:29.922Z,98983.14
2019-05-18T02:59:05.924Z,98978.97
2019-05-18T02:59:42.574Z,98974.78
2019-05-18T03:00:19.188Z,98977.11
2019-05-18T03:00:55.214Z,98979.04
2019-05-18T03:01:31.908Z,98975.83
2019-05-18T03:02:07.371Z,98979.89
2019-05-18T03:02:43.997Z,98975.25
2019-05-18T03:03:20.675Z,98974.55
2019-05-18T03:03:56.221Z,98969.91
2019-05-18T03:04:32.223Z,98975.62
2019-05-18T03:05:10.060Z,98973.25
2019-05-18T03:05:46.195Z,98967.78
2019-05-18T03:06:22.298Z,98972.96
2019-05-18T03:06:58.426Z,98968.70
2019-05-18T03:07:33.850Z,98969.08
2019-05-18T03:08:10.405Z,98973.13
2019-05-18T03:08:46.617Z,98969.52
2019-05-18T03:09:22.084Z,98971.66
2019-05-18T03:09:58.361Z,98971.94
2019-05-18T03:10:34.483Z,98973.48
2019-05-18T03:11:10.278Z,98965.71
2019-05-18T03:11:46.404Z,98968.21
2019-05-18T03:12:22.434Z,98972.38
2019-05-18T03:12:58.251Z,98969.42
2019-05-18T03:13:34.300Z,98971.92
2019-05-18T03:14:10.466Z,98969.70
2019-05-18T03:14:45.945Z,98979.98
2019-05-18T03:15:21.970Z,98972.02
2019-05-18T03:15:57.977Z,98976.27
2019-05-18T03:16:33.407Z,98974.52
2019-05-18T03:17:09.963Z,98976.73
2019-05-18T03:17:46.111Z,98976.64
2019-05-18T03:18:22.111Z,98982.75
2019-05-18T03:19:07.963Z,98982.20
2019-05-18T03:19:35.864Z,98984.88
2019-05-18T03:20:11.668Z,98987.76
2019-05-18T03:20:48.240Z,98979.70
2019-05-18T03:21:24.629Z,98980.91
2019-05-18T03:22:01.013Z,98985.71
2019-05-18T03:22:39.315Z,98984.33
2019-05-18T03:23:15.823Z,98984.42
2019-05-18T03:23:51.334Z,98985.05
2019-05-18T03:24:27.310Z,98987.76
2019-05-18T03:25:03.675Z,98974.90
2019-05-18T03:25:39.189Z,98982.91
2019-05-18T03:26:15.281Z,98987.56
2019-05-18T03:26:51.274Z,98988.95
2019-05-18T03:27:26.705Z,98984.69
2019-05-18T03:28:02.705Z,98987.02
2019-05-18T03:28:38.970Z,98986.73
2019-05-18T03:29:14.877Z,98985.73
2019-05-18T03:29:51.306Z,98983.48
2019-05-18T03:30:27.813Z,98987.75
2019-05-18T03:31:03.280Z,98990.72
2019-05-18T03:31:39.908Z,98982.20
2019-05-18T03:32:16.335Z,98987.50
2019-05-18T03:32:52.297Z,98988.34
2019-05-18T03:33:29.950Z,98991.19
2019-05-18T03:34:06.031Z,98992.69
2019-05-18T03:34:41.567Z,98988.69
2019-05-18T03:35:17.685Z,98990.93
2019-05-18T03:35:53.752Z,98988.80
2019-05-18T03:36:29.931Z,98995.62
2019-05-18T03:37:05.932Z,98988.69
2019-05-18T03:37:41.965Z,98992.69
2019-05-18T03:38:18.119Z,98988.89
2019-05-18T03:38:54.724Z,98990.36
2019-05-18T03:39:30.712Z,98986.81
2019-05-18T03:40:06.629Z,98988.20
2019-05-18T03:40:44.172Z,98989.06
2019-05-18T03:41:20.604Z,98991.73
2019-05-18T03:41:56.624Z,98990.55
2019-05-18T03:42:33.100Z,98987.05
2019-05-18T03:43:09.572Z,98981.38
2019-05-18T03:43:45.555Z,98987.50
2019-05-18T03:44:21.559Z,98982.48
2019-05-18T03:44:57.547Z,98983.69
2019-05-18T03:45:33.087Z,98987.67
2019-05-18T03:46:09.502Z,98988.34
2019-05-18T03:46:45.516Z,98991.01
2019-05-18T03:47:21.284Z,98997.58
2019-05-18T03:47:58.267Z,98992.22
2019-05-18T03:48:34.274Z,98990.17
2019-05-18T03:49:25.361Z,98987.37
2019-05-18T03:49:48.472Z,98987.57
2019-05-18T03:50:25.085Z,98986.57
2019-05-18T03:51:00.629Z,98990.64
2019-05-18T03:51:36.788Z,98988.68
2019-05-18T03:52:12.863Z,98991.47
2019-05-18T03:52:48.308Z,98988.68
2019-05-18T03:53:24.798Z,98993.30
2019-05-18T03:54:00.869Z,98992.09
2019-05-18T03:54:37.273Z,98990.72
2019-05-18T03:55:13.622Z,98991.93
2019-05-18T03:55:50.569Z,98994.34
2019-05-18T03:56:26.321Z,98993.05
2019-05-18T03:57:02.329Z,98999.61
2019-05-18T03:57:38.481Z,98994.44
2019-05-18T03:58:14.370Z,98995.81
2019-05-18T03:58:50.717Z,98993.22
2019-05-18T03:59:26.746Z,98993.31
2019-05-18T04:00:02.208Z,98995.73
2019-05-18T04:00:38.694Z,98995.44
2019-05-18T04:01:14.810Z,98995.53
2019-05-18T04:01:50.871Z,98995.36
2019-05-18T04:02:27.408Z,98997.29
2019-05-18T04:03:03.414Z,98998.70
2019-05-18T04:03:40.168Z,98993.52
2019-05-18T04:04:18.540Z,98996.57
2019-05-18T04:04:53.982Z,98999.88
2019-05-18T04:05:29.422Z,98995.62
2019-05-18T04:06:05.447Z,98995.62
2019-05-18T04:06:41.494Z,98991.39
2019-05-18T04:07:17.011Z,98994.44
2019-05-18T04:07:53.047Z,98986.93
2019-05-18T04:08:29.059Z,98993.70
2019-05-18T04:09:05.652Z,98987.30
2019-05-18T04:09:41.702Z,98985.09
2019-05-18T04:10:25.423Z,98989.34
2019-05-18T04:11:01.261Z,98990.64
2019-05-18T04:11:38.078Z,98988.68
2019-05-18T04:12:14.523Z,98986.09
2019-05-18T04:12:49.974Z,98989.42
2019-05-18T04:13:25.968Z,98989.89
2019-05-18T04:14:02.582Z,98994.06
2019-05-18T04:14:38.728Z,98993.59
2019-05-18T04:15:15.174Z,98992.77
2019-05-18T04:15:51.634Z,98990.92
2019-05-18T04:16:28.032Z,98995.15
2019-05-18T04:17:04.475Z,98992.22
2019-05-18T04:17:40.588Z,98999.70
2019-05-18T04:18:16.578Z,98997.56
2019-05-18T04:18:53.618Z,98990.16
2019-05-18T04:19:44.918Z,98992.30
2019-05-18T04:20:07.239Z,98996.45
2019-05-18T04:20:44.002Z,98992.73
2019-05-18T04:21:20.024Z,98997.73
2019-05-18T04:21:56.343Z,98994.91
2019-05-18T04:22:32.905Z,98993.44
2019-05-18T04:23:09.357Z,98989.73
2019-05-18T04:23:45.183Z,98991.61
2019-05-18T04:24:21.227Z,98993.62
2019-05-18T04:24:57.559Z,98993.13
2019-05-18T04:25:33.036Z,98997.84
2019-05-18T04:26:09.496Z,98995.53
2019-05-18T04:26:45.527Z,98999.12
2019-05-18T04:27:21.106Z,99002.27
2019-05-18T04:27:57.090Z,99002.08
2019-05-18T04:28:33.431Z,98997.94
2019-05-18T04:29:09.885Z,99003.13
2019-05-18T04:29:46.870Z,99000.41
2019-05-18T04:30:23.266Z,98998.84
2019-05-18T04:30:58.714Z,99002.52
2019-05-18T04:31:34.716Z,99002.06
2019-05-18T04:32:11.849Z,99001.78
2019-05-18T04:32:47.954Z,99001.22
2019-05-18T04:33:23.960Z,99008.81
2019-05-18T04:33:59.961Z,99005.11
2019-05-18T04:34:36.441Z,99004.74
2019-05-18T04:35:13.624Z,99003.81
2019-05-18T04:35:50.570Z,99005.64
2019-05-18T04:36:25.981Z,99004.16
2019-05-18T04:37:02.906Z,99004.50
2019-05-18T04:37:39.650Z,99002.83
2019-05-18T04:38:15.536Z,99007.62
2019-05-18T04:38:51.539Z,99010.61
2019-05-18T04:39:28.130Z,99012.65
2019-05-18T04:40:04.381Z,99007.46
2019-05-18T04:40:41.051Z,99008.76
2019-05-18T04:41:17.714Z,99012.77
2019-05-18T04:41:53.178Z,99014.72
2019-05-18T04:42:29.504Z,99016.30
2019-05-18T04:43:06.122Z,99016.91
2019-05-18T04:43:41.733Z,99012.03
2019-05-18T04:44:18.364Z,99007.30
2019-05-18T04:44:55.361Z,99019.35
2019-05-18T04:45:31.389Z,99014.16
2019-05-18T04:46:07.449Z,99011.56
2019-05-18T04:46:44.116Z,99017.84
2019-05-18T04:47:19.556Z,99016.08
2019-05-18T04:47:56.611Z,99012.93
2019-05-18T04:48:32.594Z,99015.06
2019-05-18T04:49:08.494Z,99013.02
2019-05-18T04:50:02.105Z,99010.61
2019-05-18T04:50:23.502Z,99015.80
2019-05-18T04:50:59.595Z,99012.16
2019-05-18T04:51:36.228Z,99016.02
2019-05-18T04:52:13.284Z,99017.22
2019-05-18T04:52:48.743Z,99015.83
2019-05-18T04:53:25.674Z,99018.89
2019-05-18T04:54:02.101Z,99015.42
2019-05-18T04:54:38.202Z,99008.69
2019-05-18T04:55:14.474Z,99009.52
2019-05-18T04:55:51.296Z,99021.20
2019-05-18T04:56:26.776Z,99016.11
2019-05-18T04:57:03.374Z,99018.11
2019-05-18T04:57:40.083Z,99018.11
2019-05-18T04:58:15.618Z,99018.95
2019-05-18T04:58:52.866Z,99021.76
2019-05-18T04:59:29.447Z,99022.00
2019-05-18T05:00:06.121Z,99023.67
2019-05-18T05:00:42.774Z,99019.69
2019-05-18T05:01:18.940Z,99018.48
2019-05-18T05:01:54.442Z,99021.26
2019-05-18T05:02:30.402Z,99021.38
2019-05-18T05:03:06.769Z,99023.04
2019-05-18T05:03:42.919Z,99020.56
2019-05-18T05:04:19.521Z,99021.28
2019-05-18T05:04:57.050Z,99022.42
2019-05-18T05:05:32.535Z,99023.45
2019-05-18T05:06:09.398Z,99024.19
2019-05-18T05:06:46.079Z,99017.69
2019-05-18T05:07:22.123Z,99032.50
2019-05-18T05:07:59.019Z,99031.04
2019-05-18T05:08:36.276Z,99022.88
2019-05-18T05:09:11.791Z,99027.39
2019-05-18T05:09:47.798Z,99025.08
2019-05-18T05:10:24.399Z,99031.50
2019-05-18T05:10:59.941Z,99027.39
2019-05-18T05:11:36.351Z,99030.27
2019-05-18T05:12:12.817Z,99030.67
2019-05-18T05:12:48.633Z,99026.88
2019-05-18T05:13:24.703Z,99027.24
2019-05-18T05:14:01.614Z,99028.30
2019-05-18T05:14:37.917Z,99031.97
2019-05-18T05:15:14.855Z,99033.05
2019-05-18T05:15:51.218Z,99034.84
2019-05-18T05:16:26.695Z,99031.33
2019-05-18T05:17:03.393Z,99033.77
2019-05-18T05:17:40.227Z,99037.91
2019-05-18T05:18:16.583Z,99031.59
2019-05-18T05:18:53.810Z,99036.41
2019-05-18T05:19:30.172Z,99037.23
2019-05-18T05:20:18.860Z,99035.07
2019-05-18T05:20:44.848Z,99030.03
2019-05-18T05:21:21.536Z,99037.17
2019-05-18T05:21:58.058Z,99039.55
2019-05-18T05:22:35.024Z,99031.97
2019-05-18T05:23:11.666Z,99032.43
2019-05-18T05:23:47.728Z,99033.27
2019-05-18T05:24:24.373Z,99031.50
2019-05-18T05:25:01.037Z,99032.95
2019-05-18T05:25:37.383Z,99035.17
2019-05-18T05:26:13.781Z,99027.16
2019-05-18T05:26:50.249Z,99028.64
2019-05-18T05:27:25.700Z,99036.58
2019-05-18T05:28:02.630Z,99028.36
2019-05-18T05:28:39.891Z,99032.20
2019-05-18T05:29:15.967Z,99037.33
2019-05-18T05:29:52.714Z,99034.64
2019-05-18T05:30:28.714Z,99036.28
2019-05-18T05:31:04.275Z,99037.39
2019-05-18T05:31:41.602Z,99040.75
2019-05-18T05:32:18.246Z,99033.37
2019-05-18T05:32:54.633Z,99042.88
2019-05-18T05:33:30.949Z,99045.51
2019-05-18T05:34:07.321Z,99040.17
2019-05-18T05:34:42.870Z,99044.06
2019-05-18T05:35:18.884Z,99040.18
2019-05-18T05:35:55.247Z,99044.96
2019-05-18T05:36:31.684Z,99043.52
2019-05-18T05:37:08.054Z,99045.09
2019-05-18T05:37:44.211Z,99043.09
2019-05-18T05:38:19.675Z,99043.19
2019-05-18T05:38:56.180Z,99044.73
2019-05-18T05:39:32.481Z,99046.31
2019-05-18T05:40:08.962Z,99045.66
2019-05-18T05:40:45.617Z,99047.01
2019-05-18T05:41:22.033Z,99049.23
2019-05-18T05:41:58.432Z,99049.27
2019-05-18T05:42:34.838Z,99049.46
2019-05-18T05:43:11.990Z,99048.25
2019-05-18T05:43:48.093Z,99036.89
2019-05-18T05:44:24.135Z,99045.19
2019-05-18T05:45:00.159Z,99047.47
2019-05-18T05:45:35.740Z,99044.92
2019-05-18T05:46:11.780Z,99044.05
2019-05-18T05:46:48.234Z,99046.81
2019-05-18T05:47:23.717Z,99048.39
2019-05-18T05:47:59.726Z,99052.23
2019-05-18T05:48:36.319Z,99054.23
2019-05-18T05:49:11.929Z,99049.73
2019-05-18T05:49:47.973Z,99051.97
2019-05-18T05:50:35.116Z,99055.77
2019-05-18T05:51:01.662Z,99053.63
2019-05-18T05:51:38.470Z,99053.36
2019-05-18T05:52:14.642Z,99058.60
2019-05-18T05:52:50.664Z,99059.75
2019-05-18T05:53:27.624Z,99058.31
2019-05-18T05:54:03.634Z,99061.70
2019-05-18T05:54:40.121Z,99054.66
2019-05-18T05:55:17.009Z,99050.44
2019-05-18T05:55:53.077Z,99054.37
2019-05-18T05:56:29.344Z,99054.77
2019-05-18T05:57:06.108Z,99059.30
2019-05-18T05:57:42.174Z,99057.67
2019-05-18T05:58:17.666Z,99061.38
2019-05-18T05:58:54.274Z,99056.72
2019-05-18T05:59:31.177Z,99059.16
2019-05-18T06:00:07.576Z,99052.55
2019-05-18T06:00:43.904Z,99054.88
2019-05-18T06:01:20.479Z,99055.10
2019-05-18T06:01:56.936Z,99046.30
2019-05-18T06:02:33.982Z,99054.69
2019-05-18T06:03:10.642Z,99052.75
2019-05-18T06:03:46.699Z,99043.70
2019-05-18T06:04:24.498Z,99043.61
2019-05-18T06:05:00.796Z,99046.63
2019-05-18T06:05:36.254Z,99046.10
2019-05-18T06:06:13.122Z,99052.03
2019-05-18T06:06:49.139Z,99046.98
2019-05-18T06:07:25.217Z,99050.52
2019-05-18T06:08:02.215Z,99048.75
2019-05-18T06:08:38.869Z,99055.66
2019-05-18T06:09:15.119Z,99054.27
2019-05-18T06:09:51.238Z,99052.03
2019-05-18T06:10:27.262Z,99059.04
2019-05-18T06:11:03.741Z,99052.81
2019-05-18T06:11:40.536Z,99059.45
2019-05-18T06:12:17.170Z,99061.85
2019-05-18T06:12:53.650Z,99055.50
2019-05-18T06:13:30.518Z,99051.97
2019-05-18T06:14:07.137Z,99060.96
2019-05-18T06:14:42.674Z,99060.50
2019-05-18T06:15:19.069Z,99055.40
2019-05-18T06:15:55.085Z,99054.09
2019-05-18T06:16:30.642Z,99060.80
2019-05-18T06:17:08.534Z,99060.80
2019-05-18T06:17:45.560Z,99060.27
2019-05-18T06:18:21.592Z,99061.54
2019-05-18T06:18:58.008Z,99056.41
2019-05-18T06:19:34.583Z,99055.17
2019-05-18T06:20:10.387Z,99051.34
2019-05-18T06:20:51.689Z,99052.53
2019-05-18T06:21:24.167Z,99055.08
2019-05-18T06:21:59.986Z,99049.69
2019-05-18T06:22:36.620Z,99046.04
2019-05-18T06:23:13.854Z,99042.16
2019-05-18T06:23:49.711Z,99051.45
2019-05-18T06:24:25.792Z,99047.08
2019-05-18T06:25:03.084Z,99042.02
2019-05-18T06:25:39.321Z,99046.39
2019-05-18T06:26:15.967Z,99048.13
2019-05-18T06:26:53.376Z,99043.39
2019-05-18T06:27:29.527Z,99046.10
2019-05-18T06:28:06.839Z,99046.83
2019-05-18T06:28:43.952Z,99052.66
2019-05-18T06:29:20.567Z,99050.27
2019-05-18T06:29:57.842Z,99053.16
2019-05-18T06:30:35.437Z,99051.16
2019-05-18T06:31:11.589Z,99057.91
2019-05-18T06:31:48.233Z,99057.91
2019-05-18T06:32:24.952Z,99058.16
2019-05-18T06:33:00.993Z,99056.85
2019-05-18T06:33:37.655Z,99060.66
2019-05-18T06:34:14.470Z,99059.82
2019-05-18T06:34:50.538Z,99059.67
2019-05-18T06:35:27.111Z,99057.93
2019-05-18T06:36:03.692Z,99057.45
2019-05-18T06:36:40.098Z,99052.66
2019-05-18T06:37:17.186Z,99056.02
2019-05-18T06:37:54.362Z,99053.23
2019-05-18T06:38:31.112Z,99054.61
2019-05-18T06:39:09.189Z,99061.92
2019-05-18T06:39:46.219Z,99054.61
2019-05-18T06:40:22.547Z,99059.27
2019-05-18T06:40:59.500Z,99056.19
2019-05-18T06:41:36.096Z,99055.94
2019-05-18T06:42:12.552Z,99051.89
2019-05-18T06:42:49.178Z,99055.94
2019-05-18T06:43:25.768Z,99056.28
2019-05-18T06:44:02.013Z,99056.16
2019-05-18T06:44:38.767Z,99056.87
2019-05-18T06:45:15.592Z,99060.67
2019-05-18T06:45:51.651Z,99058.29
2019-05-18T06:46:28.222Z,99054.38
2019-05-18T06:47:04.800Z,99058.77
2019-05-18T06:47:41.744Z,99053.89
2019-05-18T06:48:18.374Z,99046.45
2019-05-18T06:48:55.615Z,99060.31
2019-05-18T06:49:31.687Z,99065.19
2019-05-18T06:50:12.507Z,99060.66
2019-05-18T06:50:48.175Z,99059.70
2019-05-18T06:51:24.833Z,99061.48
2019-05-18T06:52:01.453Z,99060.77
2019-05-18T06:52:38.434Z,99057.44
2019-05-18T06:53:14.978Z,99063.36
2019-05-18T06:53:51.566Z,99063.66
2019-05-18T06:54:28.175Z,99064.95
2019-05-18T06:55:04.394Z,99061.16
2019-05-18T06:55:42.137Z,99065.43
2019-05-18T06:56:19.288Z,99063.52
2019-05-18T06:56:57.552Z,99062.67
2019-05-18T06:57:35.675Z,99064.23
2019-05-18T06:58:13.188Z,99067.39
2019-05-18T06:58:50.051Z,99064.81
2019-05-18T06:59:28.528Z,99067.44
2019-05-18T07:00:06.203Z,99066.85
2019-05-18T07:00:42.369Z,99059.12
2019-05-18T07:01:19.327Z,99063.73
2019-05-18T07:01:56.692Z,99063.98
2019-05-18T07:02:32.729Z,99062.31
2019-05-18T07:03:09.376Z,99066.00
2019-05-18T07:03:46.023Z,99064.48
2019-05-18T07:04:23.162Z,99063.39
2019-05-18T07:05:00.410Z,99062.23
2019-05-18T07:05:37.429Z,99057.58
2019-05-18T07:06:13.597Z,99061.98
2019-05-18T07:06:50.200Z,99061.13
2019-05-18T07:07:27.187Z,99055.42